createdAt,value
2022-07-31T00:00:23.000Z,15.20
2022-07-31T00:02:50.831Z,15.20
2022-07-31T00:05:18.448Z,15.10
2022-07-31T00:07:45.702Z,15.00
2022-07-31T00:10:13.070Z,15.10
2022-07-31T00:12:40.411Z,15.00
2022-07-31T00:15:10.359Z,15.00
2022-07-31T00:17:39.178Z,15.00
2022-07-31T00:20:07.413Z,14.90
2022-07-31T00:22:35.904Z,14.90
2022-07-31T00:25:03.105Z,14.90
2022-07-31T00:27:30.628Z,14.90
2022-07-31T00:29:58.047Z,14.90
2022-07-31T00:32:25.409Z,14.90
2022-07-31T00:34:53.058Z,14.80
2022-07-31T00:37:20.468Z,14.80
2022-07-31T00:39:48.715Z,14.80
2022-07-31T00:42:21.475Z,14.90
2022-07-31T00:44:52.770Z,14.90
2022-07-31T00:47:24.048Z,15.00
2022-07-31T00:49:53.626Z,15.00
2022-07-31T00:52:21.074Z,15.00
2022-07-31T00:54:51.347Z,14.90
2022-07-31T00:57:21.585Z,14.90
2022-07-31T00:59:49.163Z,14.80
2022-07-31T01:02:16.286Z,14.80
2022-07-31T01:04:44.376Z,14.80
2022-07-31T01:07:12.130Z,14.70
2022-07-31T01:09:39.465Z,14.60
2022-07-31T01:12:13.767Z,14.50
2022-07-31T01:14:48.730Z,14.50
2022-07-31T01:17:18.158Z,14.50
2022-07-31T01:19:47.797Z,14.40
2022-07-31T01:22:37.661Z,14.50
2022-07-31T01:25:29.029Z,14.40
2022-07-31T01:28:13.396Z,14.30
2022-07-31T01:31:00.422Z,14.40
2022-07-31T01:33:48.896Z,14.40
2022-07-31T01:36:22.839Z,14.40
2022-07-31T01:38:54.403Z,14.40
2022-07-31T01:41:27.196Z,14.40
2022-07-31T01:43:57.170Z,14.30
2022-07-31T01:46:28.250Z,14.30
2022-07-31T01:48:57.966Z,14.30
2022-07-31T01:51:27.652Z,14.30
2022-07-31T01:53:56.435Z,14.20
2022-07-31T01:56:25.845Z,14.20
2022-07-31T01:58:54.989Z,14.10
2022-07-31T02:01:37.344Z,14.10
2022-07-31T02:04:12.383Z,14.10
2022-07-31T02:06:41.008Z,14.10
2022-07-31T02:09:09.350Z,14.10
2022-07-31T02:11:53.342Z,14.10
2022-07-31T02:14:28.596Z,14.10
2022-07-31T02:16:57.172Z,14.00
2022-07-31T02:19:40.414Z,14.00
2022-07-31T02:22:30.247Z,14.00
2022-07-31T02:24:57.957Z,13.90
2022-07-31T02:27:55.579Z,13.90
2022-07-31T02:30:16.362Z,13.80
2022-07-31T02:32:46.950Z,13.80
2022-07-31T02:35:16.648Z,13.70
2022-07-31T02:37:49.240Z,13.70
2022-07-31T02:40:18.135Z,13.80
2022-07-31T02:42:46.900Z,13.80
2022-07-31T02:45:15.442Z,13.80
2022-07-31T02:47:43.908Z,13.80
2022-07-31T02:50:13.887Z,13.80
2022-07-31T02:52:46.462Z,13.80
2022-07-31T02:55:14.225Z,13.80
2022-07-31T02:57:44.379Z,13.70
2022-07-31T03:00:22.979Z,13.70
2022-07-31T03:02:54.237Z,13.70
2022-07-31T03:05:23.682Z,13.70
2022-07-31T03:07:50.970Z,13.60
2022-07-31T03:10:20.955Z,13.70
2022-07-31T03:13:04.339Z,13.70
2022-07-31T03:15:32.931Z,13.70
2022-07-31T03:18:01.755Z,13.60
2022-07-31T03:20:43.784Z,13.60
2022-07-31T03:23:13.744Z,13.60
2022-07-31T03:25:58.406Z,13.60
2022-07-31T03:28:25.897Z,13.60
2022-07-31T03:30:57.019Z,13.70
2022-07-31T03:33:28.224Z,13.60
2022-07-31T03:35:56.476Z,13.60
2022-07-31T03:38:41.844Z,13.70
2022-07-31T03:41:20.635Z,13.70
2022-07-31T03:43:49.984Z,13.80
2022-07-31T03:46:22.227Z,13.80
2022-07-31T03:48:53.332Z,13.80
2022-07-31T03:51:24.511Z,13.70
2022-07-31T03:53:52.137Z,13.70
2022-07-31T03:56:41.076Z,13.70
2022-07-31T03:59:15.935Z,13.80
2022-07-31T04:01:56.717Z,13.80
2022-07-31T04:04:36.610Z,13.80
2022-07-31T04:07:05.958Z,13.80
2022-07-31T04:09:33.643Z,13.80
2022-07-31T04:12:02.495Z,13.90
2022-07-31T04:14:30.610Z,14.00
2022-07-31T04:16:57.838Z,14.00
2022-07-31T04:19:26.719Z,14.00
2022-07-31T04:21:54.225Z,14.00
2022-07-31T04:24:21.892Z,14.10
2022-07-31T04:26:55.216Z,14.20
2022-07-31T04:29:28.817Z,14.20
2022-07-31T04:31:56.571Z,14.30
2022-07-31T04:34:32.013Z,14.30
2022-07-31T04:36:59.311Z,14.50
2022-07-31T04:39:26.721Z,14.50
2022-07-31T04:41:54.188Z,14.70
2022-07-31T04:44:21.998Z,14.80
2022-07-31T04:46:59.578Z,14.80
2022-07-31T04:49:27.891Z,14.90
2022-07-31T04:51:55.864Z,15.10
2022-07-31T04:54:24.283Z,15.20
2022-07-31T04:56:52.205Z,15.30
2022-07-31T04:59:21.411Z,15.50
2022-07-31T05:01:50.306Z,15.60
2022-07-31T05:04:21.261Z,15.70
2022-07-31T05:06:51.101Z,15.90
2022-07-31T05:09:23.566Z,16.10
2022-07-31T05:11:55.821Z,16.50
2022-07-31T05:14:24.292Z,16.80
2022-07-31T05:16:52.407Z,17.10
2022-07-31T05:19:20.414Z,17.20
2022-07-31T05:22:08.031Z,17.30
2022-07-31T05:24:49.512Z,17.40
2022-07-31T05:27:17.318Z,17.50
2022-07-31T05:29:44.784Z,17.50
2022-07-31T05:32:12.347Z,17.60
2022-07-31T05:34:39.732Z,17.70
2022-07-31T05:37:07.356Z,17.80
2022-07-31T05:39:39.439Z,17.90
2022-07-31T05:42:26.702Z,18.10
2022-07-31T05:45:09.172Z,18.30
2022-07-31T05:47:39.706Z,18.40
2022-07-31T05:50:09.809Z,18.60
2022-07-31T05:52:37.311Z,19.00
2022-07-31T05:55:24.531Z,20.70
2022-07-31T05:57:51.763Z,23.50
2022-07-31T06:00:21.210Z,26.00
2022-07-31T06:02:48.746Z,27.80
2022-07-31T06:05:35.846Z,29.40
2022-07-31T06:08:03.207Z,31.20
2022-07-31T06:10:36.404Z,32.10
2022-07-31T06:13:05.214Z,31.80
2022-07-31T06:15:36.595Z,31.10
2022-07-31T06:18:04.926Z,31.80
2022-07-31T06:20:32.685Z,32.40
2022-07-31T06:23:01.528Z,33.60
2022-07-31T06:25:38.859Z,34.70
2022-07-31T06:28:10.331Z,34.40
2022-07-31T06:30:40.125Z,34.80
2022-07-31T06:33:08.105Z,35.10
2022-07-31T06:35:39.104Z,35.50
2022-07-31T06:38:26.826Z,35.20
2022-07-31T06:41:34.143Z,34.40
2022-07-31T06:44:21.246Z,33.30
2022-07-31T06:47:15.888Z,34.00
2022-07-31T06:50:04.996Z,34.50
2022-07-31T06:52:39.098Z,35.10
2022-07-31T06:55:07.908Z,35.70
2022-07-31T06:57:35.417Z,35.40
2022-07-31T07:00:07.260Z,35.30
2022-07-31T07:02:47.714Z,35.60
2022-07-31T07:05:15.240Z,36.80
2022-07-31T07:07:42.491Z,37.10
2022-07-31T07:10:10.021Z,36.30
2022-07-31T07:12:57.212Z,35.80
2022-07-31T07:15:24.392Z,36.30
2022-07-31T07:17:51.905Z,36.40
2022-07-31T07:20:28.908Z,36.90
2022-07-31T07:22:56.796Z,37.00
2022-07-31T07:25:36.231Z,37.00
2022-07-31T07:28:03.921Z,37.40
2022-07-31T07:30:31.593Z,37.60
2022-07-31T07:33:01.243Z,38.00
2022-07-31T07:35:33.633Z,37.60
2022-07-31T07:38:06.133Z,38.00
2022-07-31T07:40:37.620Z,38.20
2022-07-31T07:43:05.198Z,38.20
2022-07-31T07:45:33.156Z,38.70
2022-07-31T07:48:06.487Z,38.70
2022-07-31T07:50:52.916Z,38.90
2022-07-31T07:53:27.854Z,38.80
2022-07-31T07:56:15.516Z,38.70
2022-07-31T07:59:02.960Z,38.90
2022-07-31T08:01:50.303Z,38.90
2022-07-31T08:04:22.716Z,39.80
2022-07-31T08:06:49.956Z,40.20
2022-07-31T08:09:18.223Z,39.20
2022-07-31T08:12:06.053Z,39.20
2022-07-31T08:14:53.581Z,39.60
2022-07-31T08:17:40.554Z,39.10
2022-07-31T08:20:11.970Z,39.00
2022-07-31T08:22:39.906Z,38.70
2022-07-31T08:25:07.500Z,38.70
2022-07-31T08:27:42.428Z,39.10
2022-07-31T08:30:10.547Z,39.30
2022-07-31T08:32:38.896Z,39.90
2022-07-31T08:35:06.733Z,39.90
2022-07-31T08:38:01.188Z,40.00
2022-07-31T08:40:24.523Z,40.50
2022-07-31T08:42:53.780Z,39.90
2022-07-31T08:45:22.728Z,39.70
2022-07-31T08:48:05.102Z,39.20
2022-07-31T08:50:44.599Z,38.30
2022-07-31T08:53:29.397Z,37.10
2022-07-31T08:56:07.662Z,36.00
2022-07-31T08:58:39.386Z,34.80
2022-07-31T09:01:11.364Z,33.70
2022-07-31T09:03:39.629Z,33.20
2022-07-31T09:06:10.999Z,32.50
2022-07-31T09:08:38.863Z,32.00
2022-07-31T09:11:10.774Z,31.10
2022-07-31T09:14:02.850Z,30.50
2022-07-31T09:16:47.534Z,30.10
2022-07-31T09:19:51.269Z,29.70
2022-07-31T09:22:30.811Z,29.70
2022-07-31T09:25:19.332Z,29.60
2022-07-31T09:27:51.139Z,30.20
2022-07-31T09:30:18.742Z,30.50
2022-07-31T09:33:16.370Z,30.20
2022-07-31T09:36:04.802Z,29.90
2022-07-31T09:38:39.202Z,29.60
2022-07-31T09:41:58.302Z,29.40
2022-07-31T09:44:25.253Z,29.50
2022-07-31T09:46:53.686Z,29.90
2022-07-31T09:49:32.040Z,30.20
2022-07-31T09:52:00.900Z,30.30
2022-07-31T09:54:31.492Z,30.20
2022-07-31T09:56:59.270Z,30.30
2022-07-31T09:59:32.397Z,30.40
2022-07-31T10:02:00.667Z,30.40
2022-07-31T10:04:29.034Z,30.30
2022-07-31T10:06:57.340Z,30.00
2022-07-31T10:09:27.711Z,29.60
2022-07-31T10:12:16.268Z,29.50
2022-07-31T10:14:45.283Z,29.50
2022-07-31T10:17:20.576Z,29.80
2022-07-31T10:20:09.326Z,29.70
2022-07-31T10:22:49.831Z,29.30
2022-07-31T10:25:26.385Z,29.30
2022-07-31T10:27:54.875Z,29.30
2022-07-31T10:30:27.448Z,29.50
2022-07-31T10:32:58.823Z,29.80
2022-07-31T10:35:27.097Z,30.20
2022-07-31T10:38:16.893Z,30.40
2022-07-31T10:41:03.864Z,30.50
2022-07-31T10:43:47.055Z,30.50
2022-07-31T10:46:28.528Z,30.50
2022-07-31T10:49:14.154Z,30.30
2022-07-31T10:52:01.489Z,30.30
2022-07-31T10:54:43.864Z,30.30
2022-07-31T10:57:33.628Z,30.30
2022-07-31T11:00:22.927Z,30.60
2022-07-31T11:03:20.420Z,30.70
2022-07-31T11:06:08.059Z,30.90
2022-07-31T11:08:55.787Z,31.10
2022-07-31T11:11:43.053Z,31.10
2022-07-31T11:14:33.091Z,31.00
2022-07-31T11:18:20.216Z,30.90
2022-07-31T11:20:23.957Z,30.90
2022-07-31T11:23:10.066Z,30.70
2022-07-31T11:25:38.471Z,30.40
2022-07-31T11:28:14.953Z,30.20
2022-07-31T11:30:52.707Z,29.90
2022-07-31T11:33:43.768Z,29.90
2022-07-31T11:36:14.485Z,30.00
2022-07-31T11:38:46.784Z,30.10
2022-07-31T11:41:15.345Z,30.10
2022-07-31T11:43:46.321Z,30.00
2022-07-31T11:46:19.765Z,30.10
2022-07-31T11:48:48.011Z,30.20
2022-07-31T11:51:19.875Z,30.30
2022-07-31T11:53:56.684Z,30.40
2022-07-31T11:56:27.398Z,30.50
2022-07-31T11:58:56.933Z,30.70
2022-07-31T12:01:29.365Z,30.50
2022-07-31T12:04:06.262Z,30.40
2022-07-31T12:06:37.520Z,30.40
2022-07-31T12:09:05.652Z,30.40
2022-07-31T12:11:33.399Z,30.30
2022-07-31T12:14:00.564Z,30.30
2022-07-31T12:16:38.769Z,30.40
2022-07-31T12:19:05.948Z,30.40
2022-07-31T12:21:35.708Z,30.40
2022-07-31T12:24:10.254Z,30.60
2022-07-31T12:26:37.477Z,30.80
2022-07-31T12:29:09.348Z,30.80
2022-07-31T12:31:53.353Z,30.60
2022-07-31T12:34:32.007Z,30.50
2022-07-31T12:37:04.099Z,30.40
2022-07-31T12:39:53.724Z,30.30
2022-07-31T12:42:30.422Z,30.10
2022-07-31T12:45:18.043Z,30.00
2022-07-31T12:47:51.835Z,29.70
2022-07-31T12:50:22.242Z,29.40
2022-07-31T12:52:50.040Z,29.30
2022-07-31T12:55:17.843Z,29.20
2022-07-31T12:57:50.859Z,29.20
2022-07-31T13:00:23.167Z,29.10
2022-07-31T13:02:52.302Z,28.90
2022-07-31T13:05:19.645Z,28.90
2022-07-31T13:07:47.429Z,28.80
2022-07-31T13:10:21.181Z,28.90
2022-07-31T13:12:50.568Z,29.00
2022-07-31T13:15:20.757Z,29.10
2022-07-31T13:17:50.662Z,29.30
2022-07-31T13:20:19.334Z,29.40
2022-07-31T13:22:46.517Z,29.30
2022-07-31T13:25:13.839Z,29.20
2022-07-31T13:27:41.867Z,29.20
2022-07-31T13:30:10.314Z,29.20
2022-07-31T13:32:37.735Z,29.10
2022-07-31T13:35:26.608Z,29.30
2022-07-31T13:37:54.761Z,29.20
2022-07-31T13:40:41.958Z,29.20
2022-07-31T13:43:09.285Z,29.20
2022-07-31T13:45:36.542Z,29.40
2022-07-31T13:48:08.717Z,29.70
2022-07-31T13:50:38.076Z,29.90
2022-07-31T13:53:05.247Z,30.10
2022-07-31T13:55:32.673Z,30.20
2022-07-31T13:58:01.451Z,30.40
2022-07-31T14:00:30.494Z,30.50
2022-07-31T14:02:58.164Z,30.40
2022-07-31T14:05:27.661Z,30.60
2022-07-31T14:07:56.311Z,30.50
2022-07-31T14:10:48.447Z,30.60
2022-07-31T14:13:19.030Z,30.70
2022-07-31T14:15:47.581Z,30.70
2022-07-31T14:18:15.125Z,30.70
2022-07-31T14:20:45.806Z,30.60
2022-07-31T14:23:13.903Z,30.50
2022-07-31T14:25:41.759Z,30.40
2022-07-31T14:28:12.085Z,30.40
2022-07-31T14:30:45.763Z,30.20
2022-07-31T14:33:14.621Z,29.90
2022-07-31T14:35:42.635Z,29.80
2022-07-31T14:38:09.746Z,29.80
2022-07-31T14:40:37.457Z,29.80
2022-07-31T14:43:04.852Z,29.70
2022-07-31T14:45:32.252Z,29.50
2022-07-31T14:48:07.113Z,29.40
2022-07-31T14:50:34.313Z,29.40
2022-07-31T14:53:01.706Z,29.20
2022-07-31T14:55:29.417Z,29.10
2022-07-31T14:57:56.644Z,29.10
2022-07-31T15:00:27.113Z,29.30
2022-07-31T15:02:54.436Z,29.40
2022-07-31T15:06:41.348Z,29.40
2022-07-31T15:08:09.047Z,29.30
2022-07-31T15:10:36.861Z,29.20
2022-07-31T15:13:04.501Z,29.10
2022-07-31T15:15:33.830Z,28.80
2022-07-31T15:18:02.299Z,28.60
2022-07-31T15:20:33.156Z,28.40
2022-07-31T15:23:02.956Z,28.20
2022-07-31T15:25:30.963Z,28.10
2022-07-31T15:27:58.207Z,28.00
2022-07-31T15:30:25.808Z,27.90
2022-07-31T15:32:53.387Z,27.80
2022-07-31T15:35:21.302Z,27.70
2022-07-31T15:37:49.749Z,27.60
2022-07-31T15:40:17.503Z,27.50
2022-07-31T15:42:46.136Z,27.40
2022-07-31T15:45:21.762Z,27.40
2022-07-31T15:47:49.611Z,27.30
2022-07-31T15:50:20.538Z,27.20
2022-07-31T15:52:49.105Z,27.30
2022-07-31T15:55:17.294Z,27.20
2022-07-31T15:57:44.896Z,27.20
2022-07-31T16:00:14.319Z,27.20
2022-07-31T16:02:42.912Z,27.20
2022-07-31T16:05:21.479Z,27.10
2022-07-31T16:08:30.445Z,27.10
2022-07-31T16:10:37.751Z,27.00
2022-07-31T16:13:08.693Z,26.80
2022-07-31T16:15:37.301Z,26.70
2022-07-31T16:18:08.193Z,26.50
2022-07-31T16:20:47.140Z,26.30
2022-07-31T16:23:14.792Z,26.10
2022-07-31T16:25:43.197Z,25.90
2022-07-31T16:28:12.198Z,25.80
2022-07-31T16:30:41.185Z,25.70
2022-07-31T16:33:09.695Z,25.60
2022-07-31T16:35:37.909Z,25.60
2022-07-31T16:38:05.625Z,25.50
2022-07-31T16:40:34.207Z,25.50
2022-07-31T16:43:48.295Z,25.50
2022-07-31T16:45:54.157Z,25.50
2022-07-31T16:48:22.911Z,25.60
2022-07-31T16:50:54.454Z,25.60
2022-07-31T16:54:10.857Z,25.60
2022-07-31T16:56:13.792Z,25.60
2022-07-31T16:58:41.496Z,25.60
2022-07-31T17:01:56.757Z,25.60
2022-07-31T17:04:01.650Z,25.70
2022-07-31T17:06:34.695Z,25.70
2022-07-31T17:09:16.641Z,25.80
2022-07-31T17:11:47.142Z,25.80
2022-07-31T17:14:15.150Z,25.80
2022-07-31T17:16:47.540Z,25.80
2022-07-31T17:19:41.359Z,25.80
2022-07-31T17:22:07.389Z,25.80
2022-07-31T17:24:37.381Z,25.80
2022-07-31T17:27:08.072Z,25.80
2022-07-31T17:29:37.323Z,25.80
2022-07-31T17:32:07.350Z,25.70
2022-07-31T17:34:35.699Z,25.70
2022-07-31T17:37:03.519Z,25.60
2022-07-31T17:39:31.424Z,25.50
2022-07-31T17:41:59.469Z,25.50
2022-07-31T17:44:27.275Z,25.50
2022-07-31T17:46:54.937Z,25.50
2022-07-31T17:49:22.266Z,25.40
2022-07-31T17:51:59.150Z,25.40
2022-07-31T17:54:30.880Z,25.40
2022-07-31T17:57:00.437Z,25.30
2022-07-31T17:59:28.839Z,25.20
2022-07-31T18:02:00.689Z,25.20
2022-07-31T18:04:30.292Z,25.10
2022-07-31T18:06:59.150Z,25.10
2022-07-31T18:09:27.617Z,25.00
2022-07-31T18:11:55.739Z,25.00
2022-07-31T18:14:24.343Z,25.00
2022-07-31T18:16:55.060Z,25.00
2022-07-31T18:19:23.125Z,24.90
2022-07-31T18:21:51.425Z,24.90
2022-07-31T18:24:20.339Z,24.80
2022-07-31T18:26:48.086Z,24.80
2022-07-31T18:29:17.127Z,24.60
2022-07-31T18:31:45.941Z,24.60
2022-07-31T18:34:14.388Z,24.50
2022-07-31T18:36:41.757Z,24.40
2022-07-31T18:39:09.203Z,24.30
2022-07-31T18:41:38.399Z,24.20
2022-07-31T18:44:06.280Z,24.10
2022-07-31T18:46:33.502Z,24.00
2022-07-31T18:49:01.490Z,24.00
2022-07-31T18:51:29.812Z,23.90
2022-07-31T18:53:57.881Z,23.90
2022-07-31T18:56:26.084Z,23.80
2022-07-31T18:58:54.367Z,23.80
2022-07-31T19:01:22.750Z,23.80
2022-07-31T19:03:50.730Z,23.70
2022-07-31T19:06:18.618Z,23.60
2022-07-31T19:08:46.229Z,23.60
2022-07-31T19:11:13.576Z,23.40
2022-07-31T19:13:40.916Z,23.30
2022-07-31T19:16:08.586Z,23.20
2022-07-31T19:18:36.711Z,23.00
2022-07-31T19:21:23.496Z,22.80
2022-07-31T19:23:51.516Z,22.70
2022-07-31T19:26:18.927Z,22.60
2022-07-31T19:28:46.822Z,22.50
2022-07-31T19:31:14.640Z,22.40
2022-07-31T19:33:42.147Z,22.40
2022-07-31T19:36:10.933Z,22.30
2022-07-31T19:38:38.485Z,22.20
2022-07-31T19:41:05.827Z,22.20
2022-07-31T19:43:34.056Z,22.10
2022-07-31T19:46:11.174Z,22.10
2022-07-31T19:48:44.220Z,22.00
2022-07-31T19:51:12.627Z,21.90
2022-07-31T19:53:40.046Z,21.90
2022-07-31T19:56:07.732Z,21.70
2022-07-31T19:58:36.326Z,21.70
2022-07-31T20:01:08.938Z,21.60
2022-07-31T20:03:36.551Z,21.50
2022-07-31T20:06:04.388Z,21.50
2022-07-31T20:08:33.092Z,21.40
2022-07-31T20:11:03.669Z,21.40
2022-07-31T20:13:33.278Z,21.40
2022-07-31T20:16:01.590Z,21.40
2022-07-31T20:18:29.580Z,21.40
2022-07-31T20:21:00.241Z,21.30
2022-07-31T20:23:27.828Z,21.30
2022-07-31T20:25:55.375Z,21.30
2022-07-31T20:28:23.273Z,21.30
2022-07-31T20:30:50.711Z,21.40
2022-07-31T20:33:17.923Z,21.40
2022-07-31T20:35:48.739Z,21.40
2022-07-31T20:38:18.001Z,21.40
2022-07-31T20:40:53.923Z,21.40
2022-07-31T20:43:24.939Z,21.40
2022-07-31T20:45:53.015Z,21.30
2022-07-31T20:48:24.347Z,21.20
2022-07-31T20:50:52.741Z,21.10
2022-07-31T20:53:21.695Z,21.00
2022-07-31T20:55:50.698Z,20.90
2022-07-31T20:58:20.214Z,20.90
2022-07-31T21:00:49.103Z,20.90
2022-07-31T21:03:18.053Z,20.80
2022-07-31T21:05:45.968Z,20.80
2022-07-31T21:08:13.642Z,20.80
2022-07-31T21:10:40.925Z,20.90
2022-07-31T21:13:08.604Z,20.80
2022-07-31T21:15:43.155Z,20.80
2022-07-31T21:18:14.500Z,20.80
2022-07-31T21:20:51.465Z,20.70
2022-07-31T21:23:22.143Z,20.70
2022-07-31T21:25:50.661Z,20.60
2022-07-31T21:28:18.304Z,20.50
2022-07-31T21:30:46.124Z,20.60
2022-07-31T21:33:13.703Z,20.50
2022-07-31T21:35:41.252Z,20.50
2022-07-31T21:38:11.851Z,20.50
2022-07-31T21:40:40.841Z,20.50
2022-07-31T21:43:09.112Z,20.40
2022-07-31T21:45:45.763Z,20.40
2022-07-31T21:48:23.916Z,20.30
2022-07-31T21:50:51.615Z,20.20
2022-07-31T21:53:19.056Z,20.20
2022-07-31T21:55:46.178Z,20.20
2022-07-31T21:58:14.406Z,20.10
2022-07-31T22:00:43.232Z,20.10
2022-07-31T22:03:10.582Z,20.10
2022-07-31T22:05:57.841Z,20.10
2022-07-31T22:08:25.268Z,20.10
2022-07-31T22:10:52.950Z,20.00
2022-07-31T22:13:20.657Z,20.00
2022-07-31T22:15:51.299Z,20.00
2022-07-31T22:18:30.425Z,19.90
2022-07-31T22:20:58.931Z,19.90
2022-07-31T22:23:29.352Z,20.00
2022-07-31T22:25:57.118Z,20.00
2022-07-31T22:28:26.632Z,19.90
2022-07-31T22:30:58.568Z,19.80
2022-07-31T22:33:26.261Z,19.70
2022-07-31T22:35:59.969Z,19.60
2022-07-31T22:38:28.740Z,19.60
2022-07-31T22:40:58.409Z,19.60
2022-07-31T22:44:13.230Z,19.60
2022-07-31T22:46:13.979Z,19.60
2022-07-31T22:48:41.326Z,19.60
2022-07-31T22:51:12.815Z,19.60
2022-07-31T22:53:41.910Z,19.60
2022-07-31T22:56:09.194Z,19.60
2022-07-31T22:58:36.608Z,19.50
2022-07-31T23:01:04.308Z,19.50
2022-07-31T23:03:31.662Z,19.50
2022-07-31T23:06:13.560Z,19.60
2022-07-31T23:08:53.713Z,19.60
2022-07-31T23:11:22.322Z,19.60
2022-07-31T23:13:49.664Z,19.60
2022-07-31T23:16:16.796Z,19.60
2022-07-31T23:18:44.370Z,19.40
2022-07-31T23:21:11.565Z,19.40
2022-07-31T23:23:38.683Z,19.40
2022-07-31T23:26:05.810Z,19.40
2022-07-31T23:28:34.139Z,19.30
2022-07-31T23:31:01.586Z,19.30
2022-07-31T23:33:28.778Z,19.30
2022-07-31T23:35:56.341Z,19.20
2022-07-31T23:38:23.412Z,19.10
2022-07-31T23:40:56.145Z,19.10
2022-07-31T23:43:24.183Z,18.90
2022-07-31T23:45:51.602Z,18.90
2022-07-31T23:48:19.608Z,18.70
2022-07-31T23:50:47.952Z,18.70
2022-07-31T23:53:16.416Z,18.50
2022-07-31T23:55:44.253Z,18.40
2022-07-31T23:58:11.881Z,18.40
